Nantucket 54nm Southeast Of Nantucket (44008) Wave Buoy

8:50am - Wed 25th Nov 2015 All times are EST. -5 hours from GMT.

  • Sig Wave height 2.6ft
  • Swell Direction
  • Peak Period 11s
  • Average Period 6s
  • Wind
    7mph, 9mph gusts
  • Sea Temp 55°f
  • Air Temp 47°f
  • Sea Pressure 1040.5mb
  • Nantucket 54nm Southeast Of Nantucket
  • Nantucket 54nm Southeast Of Nantucket

More Historic Weather Station data

Upgrade to MSW Pro to gain access to the past 30 days of data for over 8000 Wavebouys and Weather Stations around the globe.

Join Pro

Comparision Forecast

View Surf forecast
Wed 11/25 8:50am 2.5ft 11s 6s 7 9 mph 1040.5mb 55f 47f
7:50am 2.5ft 6s 6s 9 13 mph 1039.6mb 55f 47f
6:50am 3ft 6s 6s 9 13 mph 1038.7mb 56f 46f
5:50am 3ft 5s 5s 9 11 mph 1037.4mb 56f 46f
4:50am 3.5ft 6s 6s 7 9 mph 1036.3mb 56f 46f
3:50am 3.5ft 5s 5s 7 11 mph 1035.7mb 56f 46f
2:50am 3.5ft 10s 5s 7 9 mph 1035mb 56f 46f
1:50am 3.5ft 5s 5s 7 9 mph 1034.5mb 56f 46f
12:50am 3.5ft 10s 6s 7 9 mph 1033.7mb 56f 46f
Tue 11/24 11:50pm 3.5ft 9s 6s 7
1033mb 55f 45f
10:50pm 3.5ft 7s 6s 4 7 mph 1032.7mb 55f 45f
9:50pm 3.5ft 11s 6s  -  4 mph 1032.2mb 55f 44f
8:50pm 3.5ft 9s 6s 2 9 mph 1031.7mb 55f 44f
7:50pm 4.5ft 9s 6s 7 11 mph 1031.2mb 55f 44f
6:50pm 4ft 8s 6s 7 9 mph 1030.5mb 55f 44f
5:50pm 4.5ft 9s 6s 7 11 mph 1029.9mb 56f 43f
4:50pm 4.5ft 10s 6s 9 13 mph 1029mb 56f 42f
3:50pm 5ft 7s 6s 11 16 mph 1028.3mb 56f 42f
2:50pm 5.5ft 9s 6s 13 18 mph 1027.7mb 56f 42f
1:50pm 6ft 6s 6s 13 18 mph 1027.1mb 56f 41f
12:50pm 6.5ft 6s 6s 16 22 mph 1026.9mb 56f 41f
11:50am 7ft 6s 6s 18 25 mph 1026.9mb 56f 41f
10:50am 7ft 8s 6s 20 25 mph 1026.8mb 56f 40f
9:50am 7ft 8s 6s 20 25 mph 1026.8mb 55f 40f
8:50am 7ft 9s 6s 18 27 mph 1026mb 55f 39f
7:50am 8ft 6s 6s 20 27 mph 1025.5mb 55f 38f
6:50am 8.5ft 10s 6s 25 31 mph 1024.3mb 55f 38f
5:50am 8ft 10s 6s 27 34 mph 1023.2mb 55f 38f
4:50am 10ft 10s 7s 27 34 mph 1022.2mb 56f 38f
3:50am 10ft 11s 7s 27 36 mph 1021.4mb 56f 38f
2:50am 10ft 11s 7s 22 31 mph 1020.9mb 56f 39f
1:50am 10.5ft 11s 7s 22 27 mph 1021.1mb 56f 39f
12:50am 11ft 11s 7s 22 31 mph 1020.3mb 56f 39f
Mon 11/23 11:50pm 10.5ft 11s 7s 25 31 mph 1018.8mb 56f 40f
10:50pm 10ft 11s 7s 22 31 mph 1018.2mb 55f 41f
9:50pm 10ft 11s 7s 25 31 mph 1017.5mb 55f 43f
8:50pm 9.5ft 11s 8s 13 20 mph 1016.9mb 55f 44f
7:50pm 10.5ft 11s 8s 18 20 mph 1016.2mb 55f 44f
6:50pm 10ft 11s 8s 16 20 mph 1015.6mb 55f 45f
5:50pm 11ft 11s 8s 16 22 mph 1014.6mb 56f 45f
4:50pm 11ft 11s 8s 18 25 mph 1013.5mb 56f 45f
3:50pm 12.5ft 12s 8s 22 27 mph 1011.9mb 56f 45f
2:50pm 14ft 12s 8s 22 29 mph 1011mb 56f 46f
1:50pm 14.5ft 13s 8s 25 29 mph 1009.9mb 56f 46f
12:50pm 13.5ft 11s 8s 22 29 mph 1009mb 56f 46f
11:50am 13.5ft 11s 7s 25 34 mph 1008.9mb 56f 46f
10:50am 13ft 12s 7s 27 36 mph 1008.1mb 56f 46f
9:50am 14ft 12s 8s 29 38 mph 1007.8mb 56f 46f
8:50am 14.5ft 11s 8s 29 38 mph 1007.1mb 56f 47f
7:50am 14ft 11s 8s 31 40 mph 1006.2mb 56f 47f
6:50am 12ft 7s 7s 31 40 mph 1005.9mb 56f 47f
5:50am 10.5ft 11s 7s 34 43 mph 1004.7mb 56f 48f
4:50am 10ft 10s 7s 29 36 mph 1003.5mb 56f 50f
3:50am 10ft 10s 7s 25 31 mph 1002.8mb 56f 52f
2:50am 9ft 10s 7s 25 29 mph 1001.9mb 56f 52f
1:50am 10ft 10s 7s 22 27 mph 1002.4mb 56f 52f
12:50am 10ft 10s 7s 25 27 mph 1003.5mb 56f 52f
Sun 11/22 11:50pm 8.5ft 11s 7s 27 34 mph 1003.9mb 56f 52f
10:50pm 9ft 11s 7s 29 38 mph 1004.5mb 56f 52f
9:50pm 9.5ft 10s 8s 22 27 mph 1005mb 56f 54f
8:50pm 9.5ft 10s 8s 20 27 mph 1005.2mb 56f 54f
7:50pm 8.5ft 10s 8s 16 20 mph 1006.6mb 56f 55f
6:50pm 8ft 10s 8s 4 7 mph 1007.9mb 56f 58f
5:50pm 7.5ft 9s 8s 13 16 mph 1009.2mb 56f 59f
4:50pm 8ft 9s 8s 9 11 mph 1009.3mb 56f 59f
3:50pm 7.5ft 9s 8s 9 11 mph 1010.1mb 56f 59f
2:50pm 7.5ft 11s 7s 9 11 mph 1010.6mb 56f 58f
1:50pm 8ft 10s 8s 9 11 mph 1010.8mb 56f 58f
12:50pm 7ft 11s 7s 11 13 mph 1011.5mb 57f 58f
11:50am 7ft 11s 7s 11 13 mph 1012.2mb 57f 58f
10:50am 6.5ft 11s 7s 13 16 mph 1013.6mb 56f 58f
9:50am 5.5ft 11s 7s 13 16 mph 1013.9mb 56f 58f
8:50am 5ft 11s 7s 16 18 mph 1014.3mb 56f 57f
7:50am 5ft 11s 7s 13 16 mph 1014.9mb 56f 56f
6:50am 5ft 9s 7s 13 16 mph 1014.6mb 56f 54f
5:50am 5.5ft 9s 8s 11 13 mph 1014.3mb 56f 53f
4:50am 5ft 8s 7s 9 11 mph 1014.6mb 56f 53f
3:50am 5.5ft 11s 7s 4 7 mph 1014.7mb 56f 53f
2:50am 6ft 9s 7s 2 4 mph 1015.2mb 56f 53f
1:50am 6ft 8s 7s 4 7 mph 1016.4mb 56f 52f
12:50am 7.5ft 8s 7s 7 11 mph 1016.6mb 56f 52f
Sat 11/21 11:50pm 7.5ft 8s 7s 7 9 mph 1016.8mb 56f 52f
10:50pm 7.5ft 8s 7s 9 11 mph 1017.1mb 56f 51f
9:50pm 7ft 8s 7s 4 9 mph 1017.7mb 56f 51f
8:50pm 7.5ft 8s 7s 9 13 mph 1018mb 56f 51f
7:50pm 7ft 8s 7s 9 11 mph 1018.7mb 56f 51f
6:50pm 7ft 9s 7s 13 16 mph 1018.8mb 56f 51f
5:50pm 7ft 9s 7s 13 18 mph 1019.2mb 56f 51f
4:50pm 7ft 8s 7s 13 18 mph 1019.4mb 56f 51f
3:50pm 7.5ft 9s 6s 16 20 mph 1020mb 56f 51f